createdAt,value
2023-05-05T00:00:12.337Z,99835.41
2023-05-05T00:03:14.833Z,99836.50
2023-05-05T00:06:17.274Z,99843.97
2023-05-05T00:09:19.215Z,99836.59
2023-05-05T00:12:21.202Z,99835.97
2023-05-05T00:15:25.651Z,99839.47
2023-05-05T00:18:28.400Z,99838.72
2023-05-05T00:21:31.105Z,99818.06
2023-05-05T00:24:33.350Z,99830.69
2023-05-05T00:27:35.464Z,99826.75
2023-05-05T00:30:39.807Z,99824.31
2023-05-05T00:33:41.975Z,99820.84
2023-05-05T00:36:43.893Z,99826.38
2023-05-05T00:39:45.815Z,99824.59
2023-05-05T00:42:52.383Z,99813.63
2023-05-05T00:46:03.961Z,99823.56
2023-05-05T00:49:06.853Z,99821.09
2023-05-05T00:52:10.148Z,99827.84
2023-05-05T00:55:12.229Z,99819.91
2023-05-05T00:58:14.674Z,99819.63
2023-05-05T01:01:17.461Z,99823.13
2023-05-05T01:04:20.675Z,99821.63
2023-05-05T01:07:43.687Z,99821.34
2023-05-05T01:10:53.037Z,99811.84
2023-05-05T01:14:11.541Z,99805.50
2023-05-05T01:17:19.296Z,99804.34
2023-05-05T01:20:23.726Z,99791.19
2023-05-05T01:24:03.840Z,99802.81
2023-05-05T01:27:26.068Z,99801.16
2023-05-05T01:30:46.478Z,99788.31
2023-05-05T01:33:51.951Z,99790.81
2023-05-05T01:37:10.088Z,99791.66
2023-05-05T01:40:20.072Z,99797.78
2023-05-05T01:43:25.660Z,99793.22
2023-05-05T01:46:28.364Z,99793.91
2023-05-05T01:49:32.809Z,99792.81
2023-05-05T01:52:37.606Z,99794.97
2023-05-05T01:55:40.776Z,99793.03
2023-05-05T01:58:45.054Z,99785.50
2023-05-05T02:01:49.097Z,99787.81
2023-05-05T02:04:53.433Z,99790.06
2023-05-05T02:07:59.038Z,99785.13
2023-05-05T02:11:01.423Z,99784.66
2023-05-05T02:14:05.129Z,99787.47
2023-05-05T02:17:08.672Z,99783.19
2023-05-05T02:20:16.091Z,99785.38
2023-05-05T02:23:17.957Z,99774.75
2023-05-05T02:26:22.460Z,99777.25
2023-05-05T02:29:38.129Z,99775.97
2023-05-05T02:32:45.329Z,99775.28
2023-05-05T02:35:49.951Z,99773.78
2023-05-05T02:38:56.195Z,99783.44
2023-05-05T02:42:05.743Z,99780.69
2023-05-05T02:45:16.340Z,99771.50
2023-05-05T02:48:22.025Z,99785.53
2023-05-05T02:51:26.163Z,99786.53
2023-05-05T02:54:28.686Z,99776.00
2023-05-05T02:57:55.433Z,99775.31
2023-05-05T03:01:26.793Z,99777.72
2023-05-05T03:04:35.111Z,99783.53
2023-05-05T03:08:01.307Z,99796.06
2023-05-05T03:11:06.541Z,99794.25
2023-05-05T03:14:14.342Z,99792.25
2023-05-05T03:17:18.418Z,99783.09
2023-05-05T03:20:21.794Z,99786.66
2023-05-05T03:23:24.926Z,99786.31
2023-05-05T03:26:31.987Z,99783.56
2023-05-05T03:29:34.213Z,99793.72
2023-05-05T03:32:37.130Z,99784.69
2023-05-05T03:35:39.198Z,99793.56
2023-05-05T03:38:43.742Z,99794.34
2023-05-05T03:41:45.751Z,99786.31
2023-05-05T03:44:53.414Z,99791.81
2023-05-05T03:47:56.614Z,99786.81
2023-05-05T03:50:58.759Z,99793.22
2023-05-05T03:54:02.615Z,99787.75
2023-05-05T03:57:04.677Z,99793.81
2023-05-05T04:00:11.837Z,99792.94
2023-05-05T04:03:17.326Z,99799.06
2023-05-05T04:06:19.587Z,99809.06
2023-05-05T04:09:21.674Z,99809.59
2023-05-05T04:12:23.825Z,99817.34
2023-05-05T04:15:26.087Z,99822.41
2023-05-05T04:18:28.586Z,99830.97
2023-05-05T04:21:31.525Z,99822.72
2023-05-05T04:24:34.515Z,99833.00
2023-05-05T04:27:36.615Z,99829.09
2023-05-05T04:30:39.231Z,99831.31
2023-05-05T04:33:41.565Z,99833.38
2023-05-05T04:36:43.562Z,99827.81
2023-05-05T04:39:46.580Z,99842.03
2023-05-05T04:42:49.045Z,99843.53
2023-05-05T04:45:55.895Z,99838.44
2023-05-05T04:49:05.021Z,99847.38
2023-05-05T04:52:07.646Z,99841.22
2023-05-05T04:55:10.763Z,99842.22
2023-05-05T04:58:12.700Z,99841.00
2023-05-05T05:01:23.917Z,99851.13
2023-05-05T05:04:27.323Z,99846.63
2023-05-05T05:07:29.331Z,99852.09
2023-05-05T05:10:31.211Z,99851.25
2023-05-05T05:13:33.771Z,99865.44
2023-05-05T05:16:35.787Z,99860.19
2023-05-05T05:19:38.159Z,99875.03
2023-05-05T05:22:41.047Z,99869.44
2023-05-05T05:25:48.065Z,99862.84
2023-05-05T05:28:53.184Z,99866.56
2023-05-05T05:31:55.274Z,99861.06
2023-05-05T05:34:57.650Z,99859.25
2023-05-05T05:37:59.820Z,99861.84
2023-05-05T05:41:06.357Z,99861.44
2023-05-05T05:44:09.376Z,99866.53
2023-05-05T05:47:11.614Z,99867.81
2023-05-05T05:50:13.909Z,99868.59
2023-05-05T05:53:16.268Z,99877.28
2023-05-05T05:56:18.321Z,99877.50
2023-05-05T05:59:20.283Z,99883.56
2023-05-05T06:02:22.696Z,99877.91
2023-05-05T06:05:25.011Z,99883.53
2023-05-05T06:08:27.674Z,99879.34
2023-05-05T06:11:33.180Z,99885.19
2023-05-05T06:14:36.517Z,99886.94
2023-05-05T06:17:38.743Z,99877.91
2023-05-05T06:20:43.404Z,99876.13
2023-05-05T06:23:49.802Z,99873.88
2023-05-05T06:26:51.784Z,99865.38
2023-05-05T06:29:53.682Z,99873.38
2023-05-05T06:32:55.814Z,99875.53
2023-05-05T06:35:57.740Z,99876.03
2023-05-05T06:38:59.786Z,99873.53
2023-05-05T06:42:02.123Z,99879.88
2023-05-05T06:45:04.202Z,99878.94
2023-05-05T06:48:06.320Z,99884.84
2023-05-05T06:51:09.692Z,99873.34
2023-05-05T06:54:11.678Z,99879.84
2023-05-05T06:57:13.633Z,99877.28
2023-05-05T07:00:17.006Z,99883.88
2023-05-05T07:03:18.989Z,99883.69
2023-05-05T07:06:21.021Z,99887.66
2023-05-05T07:09:22.974Z,99873.78
2023-05-05T07:12:24.977Z,99879.44
2023-05-05T07:15:29.224Z,99879.56
2023-05-05T07:18:31.731Z,99880.19
2023-05-05T07:21:34.418Z,99879.00
2023-05-05T07:24:36.535Z,99875.31
2023-05-05T07:27:39.210Z,99879.25
2023-05-05T07:30:41.553Z,99878.06
2023-05-05T07:33:43.666Z,99869.94
2023-05-05T07:36:45.561Z,99870.56
2023-05-05T07:39:48.781Z,99874.88
2023-05-05T07:42:50.919Z,99876.34
2023-05-05T07:45:53.439Z,99877.47
2023-05-05T07:48:55.403Z,99876.84
2023-05-05T07:51:57.287Z,99870.59
2023-05-05T07:54:59.125Z,99871.53
2023-05-05T07:58:01.011Z,99871.97
2023-05-05T08:01:03.049Z,99870.59
2023-05-05T08:04:05.477Z,99866.06
2023-05-05T08:07:09.920Z,99868.84
2023-05-05T08:10:12.364Z,99870.25
2023-05-05T08:13:14.485Z,99869.84
2023-05-05T08:16:16.476Z,99872.78
2023-05-05T08:19:28.557Z,99867.00
2023-05-05T08:22:31.817Z,99872.78
2023-05-05T08:25:33.843Z,99878.72
2023-05-05T08:28:36.877Z,99875.28
2023-05-05T08:31:38.971Z,99877.47
2023-05-05T08:34:41.344Z,99873.94
2023-05-05T08:37:43.458Z,99881.47
2023-05-05T08:40:45.688Z,99884.41
2023-05-05T08:43:48.388Z,99880.25
2023-05-05T08:46:51.221Z,99882.03
2023-05-05T08:49:55.734Z,99883.31
2023-05-05T08:53:16.730Z,99874.63
2023-05-05T08:56:20.096Z,99870.72
2023-05-05T08:59:25.154Z,99867.44
2023-05-05T09:02:30.058Z,99861.56
2023-05-05T09:05:32.043Z,99863.84
2023-05-05T09:08:34.171Z,99859.19
2023-05-05T09:11:37.595Z,99853.31
2023-05-05T09:14:39.622Z,99859.00
2023-05-05T09:17:42.384Z,99860.00
2023-05-05T09:20:44.512Z,99854.03
2023-05-05T09:24:13.069Z,99854.97
2023-05-05T09:27:23.395Z,99848.41
2023-05-05T09:30:26.950Z,99845.00
2023-05-05T09:33:33.601Z,99849.44
2023-05-05T09:36:49.807Z,99840.91
2023-05-05T09:39:56.111Z,99850.50
2023-05-05T09:43:02.251Z,99852.81
2023-05-05T09:46:08.364Z,99837.19
2023-05-05T09:49:16.144Z,99839.78
2023-05-05T09:52:19.125Z,99836.03
2023-05-05T09:55:21.404Z,99837.72
2023-05-05T09:58:27.769Z,99836.44
2023-05-05T10:03:33.795Z,99829.75
2023-05-05T10:07:08.031Z,99826.50
2023-05-05T10:16:20.068Z,99815.56
2023-05-05T10:19:24.483Z,99816.31
2023-05-05T10:22:28.563Z,99816.81
2023-05-05T10:25:35.293Z,99809.75
2023-05-05T10:28:44.406Z,99805.78
2023-05-05T10:31:49.998Z,99806.69
2023-05-05T10:35:01.023Z,99796.44
2023-05-05T10:38:04.473Z,99797.84
2023-05-05T10:41:08.423Z,99800.31
2023-05-05T10:44:11.584Z,99791.94
2023-05-05T10:47:13.632Z,99785.94
2023-05-05T10:50:41.685Z,99779.81
2023-05-05T10:54:06.139Z,99786.53
2023-05-05T10:57:10.938Z,99781.75
2023-05-05T11:00:38.661Z,99777.56
2023-05-05T11:03:40.931Z,99775.91
2023-05-05T11:07:11.054Z,99772.56
2023-05-05T11:10:15.804Z,99765.66
2023-05-05T11:13:19.252Z,99754.78
2023-05-05T11:16:44.592Z,99753.31
2023-05-05T11:19:48.611Z,99749.53
2023-05-05T11:23:03.033Z,99742.69
2023-05-05T11:26:05.107Z,99744.28
2023-05-05T11:29:07.148Z,99726.47
2023-05-05T11:32:19.967Z,99734.22
2023-05-05T11:35:21.982Z,99735.53
2023-05-05T11:38:45.175Z,99734.22
2023-05-05T11:42:02.570Z,99729.50
2023-05-05T11:45:21.791Z,99725.53
2023-05-05T11:48:25.050Z,99730.44
2023-05-05T11:51:28.315Z,99717.91
2023-05-05T11:54:31.312Z,99719.22
2023-05-05T11:57:33.228Z,99721.34
2023-05-05T12:00:36.572Z,99713.44
2023-05-05T12:03:39.754Z,99716.56
2023-05-05T12:06:43.002Z,99717.53
2023-05-05T12:09:47.052Z,99712.72
2023-05-05T12:12:49.493Z,99703.00
2023-05-05T12:15:51.595Z,99697.13
2023-05-05T12:19:05.750Z,99696.88
2023-05-05T12:22:07.726Z,99699.97
2023-05-05T12:25:10.127Z,99696.13
2023-05-05T12:28:12.075Z,99692.56
2023-05-05T12:31:14.420Z,99690.88
2023-05-05T12:34:17.266Z,99695.84
2023-05-05T12:37:19.607Z,99687.25
2023-05-05T12:40:44.869Z,99692.91
2023-05-05T12:43:47.692Z,99685.69
2023-05-05T12:46:49.624Z,99681.66
2023-05-05T12:49:52.766Z,99685.47
2023-05-05T12:52:54.796Z,99672.13
2023-05-05T12:55:56.680Z,99669.59
2023-05-05T12:58:59.867Z,99673.75
2023-05-05T13:02:01.944Z,99665.88
2023-05-05T13:05:04.439Z,99656.47
2023-05-05T13:08:06.798Z,99654.47
2023-05-05T13:11:08.660Z,99648.59
2023-05-05T13:14:10.904Z,99654.25
2023-05-05T13:17:14.301Z,99649.38
2023-05-05T13:20:16.520Z,99640.31
2023-05-05T13:23:19.460Z,99641.84
2023-05-05T13:26:21.425Z,99630.97
2023-05-05T13:29:27.294Z,99630.81
2023-05-05T13:32:31.515Z,99635.59
2023-05-05T13:35:33.456Z,99634.28
2023-05-05T13:38:36.583Z,99626.56
2023-05-05T13:41:38.642Z,99625.06
2023-05-05T13:44:40.617Z,99630.50
2023-05-05T13:47:44.457Z,99623.03
2023-05-05T13:50:47.175Z,99625.72
2023-05-05T13:53:49.007Z,99613.56
2023-05-05T13:56:50.920Z,99619.75
2023-05-05T13:59:52.838Z,99613.50
2023-05-05T14:02:55.206Z,99617.44
2023-05-05T14:05:57.730Z,99618.91
2023-05-05T14:08:59.776Z,99606.06
2023-05-05T14:12:01.694Z,99605.06
2023-05-05T14:15:04.148Z,99600.63
2023-05-05T14:18:07.284Z,99608.13
2023-05-05T14:21:09.554Z,99603.22
2023-05-05T14:24:11.426Z,99605.81
2023-05-05T14:27:13.358Z,99604.72
2023-05-05T14:30:15.636Z,99603.75
2023-05-05T14:33:17.525Z,99609.16
2023-05-05T14:36:19.489Z,99598.25
2023-05-05T14:40:03.109Z,99600.97
2023-05-05T14:43:26.868Z,99596.63
2023-05-05T14:46:28.906Z,99599.31
2023-05-05T14:49:31.222Z,99596.38
2023-05-05T14:52:33.382Z,99588.31
2023-05-05T14:55:35.368Z,99589.06
2023-05-05T14:58:37.683Z,99591.28
2023-05-05T15:01:39.759Z,99581.66
2023-05-05T15:04:41.689Z,99591.03
2023-05-05T15:07:43.651Z,99582.72
2023-05-05T15:10:46.249Z,99592.78
2023-05-05T15:13:48.122Z,99589.13
2023-05-05T15:16:50.023Z,99593.00
2023-05-05T15:19:52.011Z,99590.44
2023-05-05T15:22:55.163Z,99586.44
2023-05-05T15:25:57.099Z,99589.53
2023-05-05T15:28:59.337Z,99589.97
2023-05-05T15:32:01.565Z,99594.53
2023-05-05T15:35:03.996Z,99586.66
2023-05-05T15:38:06.646Z,99585.56
2023-05-05T16:15:28.070Z,99562.22
2023-05-05T16:18:29.924Z,99555.78
2023-05-05T16:21:31.847Z,99558.97
2023-05-05T16:24:33.767Z,99562.19
2023-05-05T16:27:35.620Z,99556.16
2023-05-05T16:30:38.168Z,99567.63
2023-05-05T16:33:41.337Z,99566.34
2023-05-05T16:36:44.472Z,99560.25
2023-05-05T16:39:46.816Z,99562.06
2023-05-05T16:42:54.073Z,99565.69
2023-05-05T16:45:58.100Z,99565.66
2023-05-05T16:48:59.991Z,99564.50
2023-05-05T16:52:02.081Z,99566.06
2023-05-05T16:55:04.866Z,99564.75
2023-05-05T16:58:06.991Z,99571.16
2023-05-05T17:01:08.900Z,99570.53
2023-05-05T17:04:12.105Z,99568.38
2023-05-05T17:07:13.934Z,99570.47
2023-05-05T17:10:16.157Z,99573.38
2023-05-05T17:13:23.475Z,99571.75
2023-05-05T17:16:25.502Z,99566.31
2023-05-05T17:19:27.376Z,99563.81
2023-05-05T17:22:29.473Z,99574.19
2023-05-05T17:25:32.091Z,99576.72
2023-05-05T17:28:34.369Z,99575.75
2023-05-05T17:31:36.808Z,99571.44
2023-05-05T17:34:39.095Z,99574.59
2023-05-05T17:37:41.762Z,99571.03
2023-05-05T17:40:43.803Z,99574.34
2023-05-05T17:43:46.134Z,99580.56
2023-05-05T17:46:47.999Z,99578.94
2023-05-05T17:49:51.723Z,99573.53
2023-05-05T17:52:53.609Z,99583.69
2023-05-05T17:55:55.602Z,99573.16
2023-05-05T17:58:57.912Z,99577.09
2023-05-05T18:01:59.880Z,99584.81
2023-05-05T18:05:01.886Z,99589.78
2023-05-05T18:08:04.088Z,99590.09
2023-05-05T18:11:06.208Z,99591.25
2023-05-05T18:14:08.246Z,99595.25
2023-05-05T18:17:10.215Z,99595.53
2023-05-05T18:20:12.292Z,99597.47
2023-05-05T18:23:14.401Z,99607.38
2023-05-05T18:26:16.660Z,99602.16
2023-05-05T18:29:19.864Z,99601.59
2023-05-05T18:32:22.136Z,99602.97
2023-05-05T18:35:24.202Z,99602.13
2023-05-05T18:38:26.266Z,99609.25
2023-05-05T18:41:28.176Z,99603.88
2023-05-05T18:44:30.208Z,99603.78
2023-05-05T18:47:33.794Z,99604.31
2023-05-05T18:50:36.962Z,99609.25
2023-05-05T18:53:41.890Z,99610.59
2023-05-05T18:56:43.809Z,99605.13
2023-05-05T18:59:45.946Z,99610.59
2023-05-05T19:02:47.870Z,99602.56
2023-05-05T19:05:49.851Z,99604.19
2023-05-05T19:08:52.247Z,99604.63
2023-05-05T19:11:58.142Z,99606.53
2023-05-05T19:15:00.064Z,99606.75
2023-05-05T19:18:02.569Z,99610.78
2023-05-05T19:21:04.619Z,99607.78
2023-05-05T19:24:08.400Z,99604.78
2023-05-05T19:27:15.490Z,99604.19
2023-05-05T19:30:18.469Z,99604.28
2023-05-05T19:33:20.695Z,99604.59
2023-05-05T19:36:23.029Z,99604.97
2023-05-05T19:39:24.934Z,99600.59
2023-05-05T19:42:27.503Z,99603.41
2023-05-05T19:45:29.952Z,99598.75
2023-05-05T19:48:31.974Z,99599.16
2023-05-05T19:51:33.870Z,99603.56
2023-05-05T19:54:36.267Z,99602.88
2023-05-05T19:57:40.188Z,99604.78
2023-05-05T20:00:42.490Z,99602.41
2023-05-05T20:03:44.447Z,99599.13
2023-05-05T20:06:46.376Z,99599.38
2023-05-05T20:09:48.411Z,99596.75
2023-05-05T20:12:50.612Z,99599.25
2023-05-05T20:15:52.519Z,99596.75
2023-05-05T20:18:54.554Z,99598.44
2023-05-05T20:21:57.139Z,99589.13
2023-05-05T20:24:59.019Z,99598.63
2023-05-05T20:28:00.878Z,99601.75
2023-05-05T20:31:03.048Z,99597.25
2023-05-05T20:34:05.726Z,99593.81
2023-05-05T20:37:07.611Z,99595.06
2023-05-05T20:40:10.463Z,99598.25
2023-05-05T20:43:12.660Z,99598.81
2023-05-05T20:46:14.621Z,99584.84
2023-05-05T20:49:16.529Z,99590.31
2023-05-05T20:52:18.714Z,99580.66
2023-05-05T20:55:20.617Z,99583.03
2023-05-05T20:58:22.625Z,99582.34
2023-05-05T21:01:24.843Z,99580.44
2023-05-05T21:04:27.371Z,99581.44
2023-05-05T21:07:31.278Z,99576.34
2023-05-05T21:10:33.741Z,99577.22
2023-05-05T21:13:36.217Z,99569.00
2023-05-05T21:16:38.142Z,99577.22
2023-05-05T21:19:40.165Z,99566.59
2023-05-05T21:22:42.123Z,99567.28
2023-05-05T21:25:44.088Z,99568.50
2023-05-05T21:28:46.539Z,99565.91
2023-05-05T21:31:48.481Z,99558.03
2023-05-05T21:34:50.707Z,99559.56
2023-05-05T21:37:52.587Z,99565.94
2023-05-05T21:40:58.341Z,99573.19
2023-05-05T21:44:00.279Z,99576.81
2023-05-05T21:47:02.199Z,99575.00
2023-05-05T21:50:04.603Z,99571.19
2023-05-05T21:53:06.528Z,99564.16
2023-05-05T21:56:08.674Z,99555.56
2023-05-05T21:59:11.145Z,99565.00
2023-05-05T22:02:13.570Z,99566.94
2023-05-05T22:05:15.556Z,99566.25
2023-05-05T22:08:18.054Z,99561.56
2023-05-05T22:11:19.952Z,99564.59
2023-05-05T22:14:21.975Z,99563.06
2023-05-05T22:17:23.912Z,99558.69
2023-05-05T22:20:25.897Z,99547.75
2023-05-05T22:23:28.718Z,99551.41
2023-05-05T22:26:30.630Z,99553.63
2023-05-05T22:29:32.617Z,99547.16
2023-05-05T22:32:34.803Z,99558.22
2023-05-05T22:35:37.781Z,99556.09
2023-05-05T22:38:39.704Z,99552.59
2023-05-05T22:41:41.896Z,99556.72
2023-05-05T22:44:43.863Z,99563.53
2023-05-05T22:47:45.818Z,99550.81
2023-05-05T22:50:47.735Z,99555.53
2023-05-05T22:53:49.645Z,99558.13
2023-05-05T22:56:51.915Z,99550.69
2023-05-05T22:59:53.903Z,99564.59
2023-05-05T23:02:56.161Z,99558.50
2023-05-05T23:05:58.379Z,99561.84
2023-05-05T23:09:00.415Z,99545.38
2023-05-05T23:12:02.932Z,99556.06
2023-05-05T23:15:05.689Z,99567.78
2023-05-05T23:18:07.998Z,99562.38
2023-05-05T23:21:10.451Z,99557.03
2023-05-05T23:24:12.370Z,99561.22
2023-05-05T23:27:14.378Z,99559.94
2023-05-05T23:30:16.681Z,99553.91
2023-05-05T23:33:19.458Z,99560.97
2023-05-05T23:36:21.559Z,99558.38
2023-05-05T23:39:23.490Z,99555.72
2023-05-05T23:42:25.618Z,99558.38
2023-05-05T23:45:27.974Z,99558.63
2023-05-05T23:48:29.824Z,99553.34
2023-05-05T23:51:31.734Z,99553.34
2023-05-05T23:54:33.812Z,99548.47
2023-05-05T23:57:36.322Z,99551.31
